Time,TemperatureF,DewpointF,PressureIn,WindDirection,WindDirectionDegrees,WindSpeedMPH,WindSpeedGustMPH,Humidity,HourlyPrecipIn,Conditions,Clouds,dailyrainin,SolarRadiationWatts/m^2,SoftwareType,DateUTC
2013-03-26 00:03:00,36.0,31.0,-100.00,NNE,20,9.0,19.0,83,0.02,,,0.09,0.000000,,2013-03-26 04:03:00,
2013-03-26 00:13:00,36.0,31.0,-100.00,NNE,20,9.0,19.0,83,0.02,,,0.09,0.000000,,2013-03-26 04:13:00,
2013-03-26 00:23:00,36.0,31.0,-100.00,NNE,20,9.0,19.0,83,0.02,,,0.09,0.000000,,2013-03-26 04:23:00,
2013-03-26 00:53:00,37.0,31.0,-100.00,North,3,8.0,16.0,78,0.00,,,0.09,1.000000,,2013-03-26 04:53:00,
2013-03-26 01:02:00,37.0,31.0,-100.00,North,3,8.0,16.0,78,0.00,,,0.09,1.000000,,2013-03-26 05:02:00,
2013-03-26 01:12:00,37.0,31.0,-100.00,North,3,8.0,16.0,78,0.00,,,0.09,1.000000,,2013-03-26 05:12:00,
2013-03-26 01:22:00,37.0,31.0,-100.00,North,3,8.0,16.0,78,0.00,,,0.09,1.000000,,2013-03-26 05:22:00,
2013-03-26 01:52:00,36.0,30.0,-100.00,NNW,348,11.0,17.0,80,0.00,,,0.09,0.000000,,2013-03-26 05:52:00,
2013-03-26 02:02:00,36.0,30.0,-100.00,NNW,348,11.0,17.0,80,0.00,,,0.09,0.000000,,2013-03-26 06:02:00,
2013-03-26 02:12:00,36.0,30.0,-100.00,NNW,348,11.0,17.0,80,0.00,,,0.09,0.000000,,2013-03-26 06:12:00,
2013-03-26 02:22:00,36.0,30.0,-100.00,NNW,348,11.0,17.0,80,0.00,,,0.09,0.000000,,2013-03-26 06:22:00,
2013-03-26 02:53:00,34.0,32.0,-100.00,NNW,339,8.0,23.0,91,0.02,,,0.11,1.000000,,2013-03-26 06:53:00,
2013-03-26 03:02:00,34.0,32.0,-100.00,NNW,339,8.0,23.0,91,0.02,,,0.11,1.000000,,2013-03-26 07:02:00,
2013-03-26 03:12:00,34.0,32.0,-100.00,NNW,339,8.0,23.0,91,0.02,,,0.11,1.000000,,2013-03-26 07:12:00,
2013-03-26 03:22:00,34.0,32.0,-100.00,NNW,339,8.0,23.0,91,0.02,,,0.11,1.000000,,2013-03-26 07:22:00,
2013-03-26 03:53:00,35.0,31.0,-100.00,NNW,335,7.0,13.0,85,0.00,,,0.11,1.000000,,2013-03-26 07:53:00,
2013-03-26 04:02:00,35.0,31.0,-100.00,NNW,335,7.0,13.0,85,0.00,,,0.11,1.000000,,2013-03-26 08:02:00,
2013-03-26 04:13:00,35.0,31.0,-100.00,NNW,335,7.0,13.0,85,0.00,,,0.11,1.000000,,2013-03-26 08:13:00,
2013-03-26 04:22:00,35.0,31.0,-100.00,NNW,335,7.0,13.0,85,0.00,,,0.11,1.000000,,2013-03-26 08:22:00,
2013-03-26 04:52:00,34.0,29.0,-100.00,NNW,329,5.0,11.0,82,0.00,,,0.11,1.000000,,2013-03-26 08:52:00,
2013-03-26 05:02:00,34.0,29.0,-100.00,NNW,329,5.0,11.0,82,0.00,,,0.11,1.000000,,2013-03-26 09:02:00,
2013-03-26 05:12:00,34.0,29.0,-100.00,NNW,329,5.0,11.0,82,0.00,,,0.11,1.000000,,2013-03-26 09:12:00,
2013-03-26 05:22:00,34.0,29.0,-100.00,NNW,329,5.0,11.0,82,0.00,,,0.11,1.000000,,2013-03-26 09:22:00,
2013-03-26 05:52:00,34.0,28.0,-100.00,NW,324,3.0,9.0,80,0.00,,,0.11,1.000000,,2013-03-26 09:52:00,
2013-03-26 06:03:00,34.0,28.0,-100.00,NW,324,3.0,9.0,80,0.00,,,0.11,1.000000,,2013-03-26 10:03:00,
2013-03-26 06:12:00,34.0,28.0,-100.00,NW,324,3.0,9.0,80,0.00,,,0.11,1.000000,,2013-03-26 10:12:00,
2013-03-26 06:22:00,34.0,28.0,-100.00,NW,324,3.0,9.0,80,0.00,,,0.11,1.000000,,2013-03-26 10:22:00,
2013-03-26 06:53:00,33.0,28.0,-100.00,NW,312,4.0,8.0,80,0.00,,,0.11,1.000000,,2013-03-26 10:53:00,
2013-03-26 07:03:00,33.0,28.0,-100.00,NW,312,4.0,8.0,80,0.00,,,0.11,1.000000,,2013-03-26 11:03:00,
2013-03-26 07:12:00,33.0,28.0,-100.00,NW,312,4.0,8.0,80,0.00,,,0.11,1.000000,,2013-03-26 11:12:00,
2013-03-26 07:22:00,33.0,28.0,-100.00,NW,312,4.0,8.0,80,0.00,,,0.11,1.000000,,2013-03-26 11:22:00,
2013-03-26 07:52:00,34.0,28.0,-100.00,WNW,293,3.0,5.0,80,0.00,,,0.11,14.000000,,2013-03-26 11:52:00,
2013-03-26 08:03:00,34.0,28.0,-100.00,WNW,293,3.0,5.0,80,0.00,,,0.11,14.000000,,2013-03-26 12:03:00,
2013-03-26 08:12:00,34.0,28.0,-100.00,WNW,293,3.0,5.0,80,0.00,,,0.11,14.000000,,2013-03-26 12:12:00,
2013-03-26 08:22:00,34.0,28.0,-100.00,WNW,293,3.0,5.0,80,0.00,,,0.11,14.000000,,2013-03-26 12:22:00,
2013-03-26 08:52:00,36.0,29.0,-100.00,NW,309,2.0,5.0,75,0.00,,,0.11,77.000000,,2013-03-26 12:52:00,
2013-03-26 09:03:00,36.0,29.0,-100.00,NW,309,2.0,5.0,75,0.00,,,0.11,77.000000,,2013-03-26 13:03:00,
2013-03-26 09:12:00,36.0,29.0,-100.00,NW,309,2.0,5.0,75,0.00,,,0.11,77.000000,,2013-03-26 13:12:00,
2013-03-26 09:23:00,36.0,29.0,-100.00,NW,309,2.0,5.0,75,0.00,,,0.11,77.000000,,2013-03-26 13:23:00,
2013-03-26 09:52:00,38.0,29.0,-100.00,NW,308,4.0,7.0,69,0.00,,,0.11,126.000000,,2013-03-26 13:52:00,
2013-03-26 10:02:00,38.0,29.0,-100.00,NW,308,4.0,7.0,69,0.00,,,0.11,126.000000,,2013-03-26 14:02:00,
2013-03-26 10:12:00,38.0,29.0,-100.00,NW,308,4.0,7.0,69,0.00,,,0.11,126.000000,,2013-03-26 14:12:00,
2013-03-26 10:22:00,38.0,29.0,-100.00,NW,308,4.0,7.0,69,0.00,,,0.11,126.000000,,2013-03-26 14:22:00,
2013-03-26 10:53:00,40.0,26.0,-100.00,NNW,342,6.0,11.0,57,0.00,,,0.11,186.000000,,2013-03-26 14:53:00,
2013-03-26 11:02:00,40.0,26.0,-100.00,NNW,342,6.0,11.0,57,0.00,,,0.11,186.000000,,2013-03-26 15:02:00,
2013-03-26 11:12:00,40.0,26.0,-100.00,NNW,342,6.0,11.0,57,0.00,,,0.11,186.000000,,2013-03-26 15:12:00,
2013-03-26 11:22:00,40.0,26.0,-100.00,NNW,342,6.0,11.0,57,0.00,,,0.11,186.000000,,2013-03-26 15:22:00,
2013-03-26 11:53:00,42.0,25.0,-100.00,NNW,336,7.0,15.0,50,0.00,,,0.11,313.000000,,2013-03-26 15:53:00,
2013-03-26 12:03:00,42.0,25.0,-100.00,NNW,336,7.0,15.0,50,0.00,,,0.11,313.000000,,2013-03-26 16:03:00,
2013-03-26 12:13:00,42.0,25.0,-100.00,NNW,336,7.0,15.0,50,0.00,,,0.11,313.000000,,2013-03-26 16:13:00,
2013-03-26 12:23:00,42.0,25.0,-100.00,NNW,336,7.0,15.0,50,0.00,,,0.11,313.000000,,2013-03-26 16:23:00,
2013-03-26 12:54:00,46.0,28.0,-100.00,NW,311,5.0,14.0,49,0.00,,,0.11,488.000000,,2013-03-26 16:54:00,
2013-03-26 13:03:00,46.0,28.0,-100.00,NW,311,5.0,14.0,49,0.00,,,0.11,488.000000,,2013-03-26 17:03:00,
2013-03-26 13:12:00,46.0,28.0,-100.00,NW,311,5.0,14.0,49,0.00,,,0.11,488.000000,,2013-03-26 17:12:00,
2013-03-26 13:23:00,46.0,28.0,-100.00,NW,311,5.0,14.0,49,0.00,,,0.11,488.000000,,2013-03-26 17:23:00,
2013-03-26 13:53:00,46.0,27.0,-100.00,WNW,302,8.0,15.0,47,0.00,,,0.11,507.000000,,2013-03-26 17:53:00,
2013-03-26 14:03:00,46.0,27.0,-100.00,WNW,302,8.0,15.0,47,0.00,,,0.11,507.000000,,2013-03-26 18:03:00,
2013-03-26 14:12:00,46.0,27.0,-100.00,WNW,302,8.0,15.0,47,0.00,,,0.11,507.000000,,2013-03-26 18:12:00,
2013-03-26 14:23:00,46.0,27.0,-100.00,WNW,302,8.0,15.0,47,0.00,,,0.11,507.000000,,2013-03-26 18:23:00,
2013-03-26 14:53:00,46.0,25.0,-100.00,North,354,8.0,16.0,44,0.00,,,0.11,365.000000,,2013-03-26 18:53:00,
2013-03-26 15:03:00,46.0,25.0,-100.00,North,354,8.0,16.0,44,0.00,,,0.11,365.000000,,2013-03-26 19:03:00,
2013-03-26 15:12:00,46.0,25.0,-100.00,North,354,8.0,16.0,44,0.00,,,0.11,365.000000,,2013-03-26 19:12:00,
2013-03-26 15:22:00,46.0,25.0,-100.00,North,354,8.0,16.0,44,0.00,,,0.11,365.000000,,2013-03-26 19:22:00,
2013-03-26 15:53:00,43.0,32.0,-100.00,SSW,211,6.0,13.0,66,0.00,,,0.11,233.000000,,2013-03-26 19:53:00,
2013-03-26 16:02:00,43.0,32.0,-100.00,SSW,211,6.0,13.0,66,0.00,,,0.11,233.000000,,2013-03-26 20:02:00,
2013-03-26 16:13:00,43.0,32.0,-100.00,SSW,211,6.0,13.0,66,0.00,,,0.11,233.000000,,2013-03-26 20:13:00,
2013-03-26 16:23:00,43.0,32.0,-100.00,SSW,211,6.0,13.0,66,0.00,,,0.11,233.000000,,2013-03-26 20:23:00,
2013-03-26 16:53:00,44.0,31.0,-100.00,WSW,242,5.0,11.0,60,0.00,,,0.11,239.000000,,2013-03-26 20:53:00,
2013-03-26 17:02:00,44.0,31.0,-100.00,WSW,242,5.0,11.0,60,0.00,,,0.11,239.000000,,2013-03-26 21:02:00,
2013-03-26 17:13:00,44.0,31.0,-100.00,WSW,242,5.0,11.0,60,0.00,,,0.11,239.000000,,2013-03-26 21:13:00,
2013-03-26 17:22:00,44.0,31.0,-100.00,WSW,242,5.0,11.0,60,0.00,,,0.11,239.000000,,2013-03-26 21:22:00,
2013-03-26 17:52:00,43.0,33.0,-100.00,SW,235,6.0,13.0,67,0.00,,,0.11,217.000000,,2013-03-26 21:52:00,
2013-03-26 18:02:00,43.0,33.0,-100.00,SW,235,6.0,13.0,67,0.00,,,0.11,217.000000,,2013-03-26 22:02:00,
2013-03-26 18:12:00,43.0,33.0,-100.00,SW,235,6.0,13.0,67,0.00,,,0.11,217.000000,,2013-03-26 22:12:00,
2013-03-26 18:22:00,43.0,33.0,-100.00,SW,235,6.0,13.0,67,0.00,,,0.11,217.000000,,2013-03-26 22:22:00,
2013-03-26 18:53:00,42.0,32.0,-100.00,SW,233,4.0,11.0,68,0.00,,,0.11,117.000000,,2013-03-26 22:53:00,
2013-03-26 19:01:00,42.0,32.0,-100.00,SW,233,4.0,11.0,68,0.00,,,0.11,117.000000,,2013-03-26 23:01:00,
2013-03-26 19:10:00,42.0,32.0,-100.00,SW,233,4.0,11.0,68,0.00,,,0.11,117.000000,,2013-03-26 23:10:00,
2013-03-26 19:22:00,42.0,32.0,-100.00,SW,233,4.0,11.0,68,0.00,,,0.11,117.000000,,2013-03-26 23:22:00,
2013-03-26 19:53:00,38.0,33.0,-100.00,SW,236,3.0,7.0,83,0.00,,,0.11,15.000000,,2013-03-26 23:53:00,
2013-03-26 20:02:00,38.0,33.0,-100.00,SW,236,3.0,7.0,83,0.00,,,0.11,15.000000,,2013-03-27 00:02:00,
2013-03-26 20:12:00,38.0,33.0,-100.00,SW,236,3.0,7.0,83,0.00,,,0.11,15.000000,,2013-03-27 00:12:00,
2013-03-26 20:22:00,38.0,33.0,-100.00,SW,236,3.0,7.0,83,0.00,,,0.11,15.000000,,2013-03-27 00:22:00,
2013-03-26 20:52:00,33.0,31.0,-100.00,West,261,3.0,4.0,91,0.00,,,0.11,1.000000,,2013-03-27 00:52:00,
2013-03-26 21:02:00,33.0,31.0,-100.00,West,261,3.0,4.0,91,0.00,,,0.11,1.000000,,2013-03-27 01:02:00,
2013-03-26 21:12:00,33.0,31.0,-100.00,West,261,3.0,4.0,91,0.00,,,0.11,1.000000,,2013-03-27 01:12:00,
2013-03-26 21:23:00,33.0,31.0,-100.00,West,261,3.0,4.0,91,0.00,,,0.11,1.000000,,2013-03-27 01:23:00,
2013-03-26 21:53:00,31.0,29.0,-100.00,NW,306,0.0,3.0,93,0.00,,,0.11,1.000000,,2013-03-27 01:53:00,
2013-03-26 22:03:00,31.0,29.0,-100.00,NW,306,0.0,3.0,93,0.00,,,0.11,1.000000,,2013-03-27 02:03:00,
2013-03-26 22:12:00,31.0,29.0,-100.00,NW,306,0.0,3.0,93,0.00,,,0.11,1.000000,,2013-03-27 02:12:00,
2013-03-26 22:22:00,31.0,29.0,-100.00,NW,306,0.0,3.0,93,0.00,,,0.11,1.000000,,2013-03-27 02:22:00,
2013-03-26 22:53:00,29.0,27.0,-100.00,WNW,300,1.0,2.0,94,0.00,,,0.04,1.000000,,2013-03-27 02:53:00,
2013-03-26 23:02:00,29.0,27.0,-100.00,WNW,300,1.0,2.0,94,0.00,,,0.04,1.000000,,2013-03-27 03:02:00,
2013-03-26 23:12:00,29.0,27.0,-100.00,WNW,300,1.0,2.0,94,0.00,,,0.04,1.000000,,2013-03-27 03:12:00,
2013-03-26 23:22:00,29.0,27.0,-100.00,WNW,300,1.0,2.0,94,0.00,,,0.04,1.000000,,2013-03-27 03:22:00,
2013-03-26 23:53:00,27.0,25.0,-100.00,NW,314,3.0,4.0,91,0.00,,,0.02,0.000000,,2013-03-27 03:53:00,